Time;durP1;ratioP1;P1;durP2;ratioP2;P2;SDS_P1;SDS_P2;PMS_P1;PMS_P2;Temp;Humidity;BMP_temperature;BMP_pressure;BME280_temperature;BME280_humidity;BME280_pressure;Samples;Min_cycle;Max_cycle;Signal;HPM_P1;HPM_P2
2023/09/04 00:01:28;;;;;;;8.60;4.30;;;;;;;16.02;62.18;101510.34;109955;1270;22743;-79
2023/09/04 00:04:15;;;;;;;6.90;3.70;;;;;;;15.99;62.41;101514.49;109690;1269;21985;-79
2023/09/04 00:06:56;;;;;;;5.20;3.60;;;;;;;15.95;62.66;101510.44;109983;1270;21975;-79
2023/09/04 00:09:30;;;;;;;7.40;3.40;;;;;;;15.94;62.78;101498.04;109601;1273;23116;-80
2023/09/04 00:12:08;;;;;;;9.40;3.90;;;;;;;15.93;62.70;101496.15;107231;1270;22016;-82
2023/09/04 00:14:47;;;;;;;8.10;4.40;;;;;;;15.88;62.98;101491.41;109932;1270;22440;-78
2023/09/04 00:17:32;;;;;;;7.60;4.00;;;;;;;15.85;63.03;101494.38;109489;1270;22496;-79
2023/09/04 00:20:12;;;;;;;5.50;3.70;;;;;;;15.76;63.15;101485.60;109967;1256;22751;-78
2023/09/04 00:23:08;;;;;;;6.50;4.00;;;;;;;15.75;63.30;101494.76;110139;1267;23162;-78
2023/09/04 00:25:55;;;;;;;7.20;4.50;;;;;;;15.72;63.50;101508.56;110131;1267;23309;-79
2023/09/04 00:28:48;;;;;;;7.30;4.10;;;;;;;15.73;63.68;101515.56;109770;1269;23700;-78
2023/09/04 00:31:40;;;;;;;6.40;3.90;;;;;;;15.71;63.84;101516.32;110240;1264;21962;-79
2023/09/04 00:34:30;;;;;;;8.80;3.80;;;;;;;15.72;63.97;101521.04;110350;1260;22431;-78
2023/09/04 00:37:14;;;;;;;6.70;4.20;;;;;;;15.73;64.09;101515.70;110330;1264;22012;-78
2023/09/04 00:40:07;;;;;;;6.80;3.80;;;;;;;15.74;64.18;101513.58;110402;1264;21960;-78
2023/09/04 00:43:02;;;;;;;7.60;4.50;;;;;;;15.74;64.21;101518.66;110242;1259;21977;-78
2023/09/04 00:45:51;;;;;;;7.60;4.80;;;;;;;15.75;64.30;101518.64;110389;1264;23027;-79
2023/09/04 00:48:41;;;;;;;8.80;4.50;;;;;;;15.76;64.34;101521.23;110474;1263;21966;-80
2023/09/04 00:51:36;;;;;;;8.70;4.40;;;;;;;15.80;64.63;101516.34;110579;1263;21961;-79
2023/09/04 00:54:32;;;;;;;11.20;4.70;;;;;;;15.84;64.48;101512.84;110398;1263;21964;-78
2023/09/04 00:57:30;;;;;;;8.40;4.70;;;;;;;15.90;64.47;101508.02;110317;1265;23591;-79
2023/09/04 01:00:19;;;;;;;10.10;5.00;;;;;;;15.93;64.57;101506.15;109997;1270;21995;-79
2023/09/04 01:03:28;;;;;;;7.60;3.90;;;;;;;15.96;64.43;101506.20;109608;1265;21967;-79
2023/09/04 01:06:10;;;;;;;7.50;3.80;;;;;;;15.99;64.45;101498.35;110015;1268;21978;-78
2023/09/04 01:09:05;;;;;;;12.60;4.80;;;;;;;16.03;64.31;101494.48;110307;1268;21987;-79
2023/09/04 01:12:20;;;;;;;8.10;4.40;;;;;;;16.03;64.24;101494.30;110340;1268;23031;-79
2023/09/04 01:15:28;;;;;;;7.60;4.00;;;;;;;16.03;64.34;101489.39;110112;1260;23602;-79
2023/09/04 01:18:31;;;;;;;6.10;4.30;;;;;;;16.04;64.33;101481.29;110590;1261;23047;-78
2023/09/04 01:21:47;;;;;;;5.90;4.00;;;;;;;16.06;64.20;101482.61;110893;1256;23783;-80
2023/09/04 01:24:38;;;;;;;7.60;3.60;;;;;;;16.05;64.18;101483.19;110499;1259;21964;-80
2023/09/04 01:27:39;;;;;;;7.70;4.50;;;;;;;16.03;64.07;101486.06;110222;1268;21988;-79
2023/09/04 01:30:41;;;;;;;8.10;3.90;;;;;;;16.00;64.11;101485.31;109341;1274;22219;-80
2023/09/04 01:33:29;;;;;;;5.60;4.00;;;;;;;15.97;64.18;101477.35;108872;1278;23720;-79
2023/09/04 01:36:18;;;;;;;7.70;4.10;;;;;;;15.97;64.32;101472.27;109063;1278;22088;-79
2023/09/04 01:39:05;;;;;;;;;;;;;;;;;;;;;
2023/09/04 01:41:56;;;;;;;5.60;3.40;;;;;;;15.92;64.34;101467.38;108511;1288;22019;-79
2023/09/04 01:44:45;;;;;;;7.00;4.50;;;;;;;15.88;64.37;101469.30;108542;1284;22010;-80
2023/09/04 01:47:41;;;;;;;4.60;3.40;;;;;;;15.84;64.51;101466.86;108415;1283;22040;-80
2023/09/04 01:50:34;;;;;;;4.60;3.60;;;;;;;15.79;64.36;101474.27;108706;1282;23071;-80
2023/09/04 01:53:07;;;;;;;8.50;3.90;;;;;;;15.75;64.38;101484.08;108876;1281;21999;-80
2023/09/04 01:55:45;;;;;;;5.20;3.30;;;;;;;15.73;64.50;101486.94;109044;1275;22022;-79
2023/09/04 01:58:21;;;;;;;10.20;4.20;;;;;;;15.70;64.60;101488.82;108956;1277;23055;-80
2023/09/04 02:01:02;;;;;;;5.00;3.90;;;;;;;15.65;64.63;101497.08;108967;1277;23702;-78
2023/09/04 02:03:39;;;;;;;5.80;3.90;;;;;;;15.60;64.79;101502.88;109181;1273;21989;-80
2023/09/04 02:06:20;;;;;;;6.10;3.80;;;;;;;15.56;64.84;101506.72;110127;1268;21979;-77
2023/09/04 02:08:54;;;;;;;5.70;3.50;;;;;;;15.51;64.94;101516.92;109500;1273;21994;-81
2023/09/04 02:11:43;;;;;;;6.80;3.80;;;;;;;15.46;65.10;101524.14;109433;1273;23735;-81
2023/09/04 02:14:31;;;;;;;6.10;4.30;;;;;;;15.39;65.26;101523.72;109448;1268;22740;-79
2023/09/04 02:17:16;;;;;;;6.00;3.80;;;;;;;15.34;65.48;101519.73;109862;1264;23622;-79
2023/09/04 02:19:47;;;;;;;5.30;3.90;;;;;;;15.30;65.66;101512.50;110066;1265;23666;-79
2023/09/04 02:22:31;;;;;;;4.20;3.80;;;;;;;15.28;65.94;101513.11;109765;1268;21970;-79
2023/09/04 02:25:13;;;;;;;8.60;4.50;;;;;;;15.25;66.03;101513.77;109892;1268;21976;-80
2023/09/04 02:28:02;;;;;;;6.30;4.60;;;;;;;15.23;66.19;101515.23;110254;1263;21986;-80
2023/09/04 02:30:43;;;;;;;5.40;4.20;;;;;;;15.23;66.47;101516.63;110345;1266;21976;-80
2023/09/04 02:33:26;;;;;;;8.00;4.60;;;;;;;15.23;66.46;101519.25;110383;1265;21958;-80
2023/09/04 02:36:36;;;;;;;8.10;4.60;;;;;;;15.21;66.55;101521.10;109612;1272;23720;-80
2023/09/04 02:39:11;;;;;;;10.40;4.70;;;;;;;15.21;66.63;101517.08;109913;1268;21996;-79
2023/09/04 02:41:46;;;;;;;6.00;3.80;;;;;;;15.20;66.60;101510.60;110160;1268;21971;-79
2023/09/04 02:44:19;;;;;;;8.10;4.20;;;;;;;15.20;66.55;101504.98;109978;1268;21964;-81
2023/09/04 02:47:06;;;;;;;5.80;4.20;;;;;;;15.18;66.62;101506.64;110154;1268;21970;-79
2023/09/04 02:49:52;;;;;;;6.00;4.90;;;;;;;15.16;66.84;101512.00;110221;1267;21931;-79
2023/09/04 02:53:04;;;;;;;7.30;4.70;;;;;;;15.13;66.67;101512.46;110133;1267;21992;-80
2023/09/04 02:55:57;;;;;;;8.00;4.60;;;;;;;15.08;66.72;101511.96;110192;1267;21977;-80
2023/09/04 02:58:31;;;;;;;5.50;4.60;;;;;;;15.04;66.74;101518.95;110427;1265;21975;-80
2023/09/04 03:01:06;;;;;;;6.10;5.40;;;;;;;15.01;66.77;101522.17;110228;1261;23023;-79
2023/09/04 03:04:02;;;;;;;5.40;4.20;;;;;;;14.98;66.93;101528.81;110714;1261;21958;-78
2023/09/04 03:06:48;;;;;;;7.40;5.10;;;;;;;14.95;67.09;101530.15;110331;1267;21970;-79
2023/09/04 03:09:37;;;;;;;6.40;4.90;;;;;;;14.92;67.17;101527.27;110963;1262;21957;-80
2023/09/04 03:12:11;;;;;;;7.50;5.20;;;;;;;14.92;67.21;101524.99;110865;1262;21991;-78
2023/09/04 03:14:46;;;;;;;8.10;4.30;;;;;;;14.93;67.34;101521.84;110800;1262;22746;-78
2023/09/04 03:17:25;;;;;;;11.40;5.50;;;;;;;14.93;67.51;101517.96;110669;1262;23058;-79
2023/09/04 03:20:08;;;;;;;9.50;6.80;;;;;;;14.93;67.50;101510.08;110531;1262;21961;-81
2023/09/04 03:22:40;;;;;;;8.90;6.30;;;;;;;14.89;67.44;101508.98;110672;1262;23143;-79
2023/09/04 03:25:15;;;;;;;10.80;5.90;;;;;;;14.86;67.42;101505.59;110780;1256;21959;-82
2023/09/04 03:27:56;;;;;;;10.00;6.00;;;;;;;14.84;67.61;101499.36;111119;1256;21953;-81
2023/09/04 03:31:15;;;;;;;6.80;5.20;;;;;;;14.83;67.73;101498.66;111076;1256;23061;-79
2023/09/04 03:34:22;;;;;;;10.30;5.60;;;;;;;14.81;67.98;101500.14;111447;1256;21987;-80
2023/09/04 03:37:00;;;;;;;11.00;6.80;;;;;;;14.82;68.09;101499.23;111375;1254;23596;-80
2023/09/04 03:40:29;;;;;;;8.10;5.50;;;;;;;14.83;68.20;101497.97;111132;1256;22703;-78
2023/09/04 03:43:34;;;;;;;11.80;6.00;;;;;;;14.82;68.31;101497.16;111191;1256;21980;-79
2023/09/04 03:46:21;;;;;;;6.70;5.60;;;;;;;14.83;68.39;101505.70;111388;1256;23759;-79
2023/09/04 03:49:09;;;;;;;10.50;5.80;;;;;;;14.84;68.21;101507.42;110759;1263;22929;-79
2023/09/04 03:51:41;;;;;;;8.40;6.00;;;;;;;14.84;68.21;101520.38;110794;1255;22727;-79
2023/09/04 03:54:29;;;;;;;8.80;5.60;;;;;;;14.83;68.13;101525.88;110395;1263;23014;-79
2023/09/04 03:57:22;;;;;;;8.60;5.70;;;;;;;14.81;68.32;101530.82;110800;1263;22267;-81
2023/09/04 04:00:14;;;;;;;7.00;4.90;;;;;;;14.81;68.52;101533.80;110429;1263;22259;-79
2023/09/04 04:03:00;;;;;;;11.70;5.60;;;;;;;14.81;68.55;101533.99;110500;1262;23587;-79
2023/09/04 04:05:39;;;;;;;10.80;5.50;;;;;;;14.81;68.45;101532.41;110043;1268;21970;-81
2023/09/04 04:08:32;;;;;;;10.50;5.40;;;;;;;14.80;68.51;101540.51;110434;1263;21962;-78
2023/09/04 04:11:10;;;;;;;5.60;5.10;;;;;;;14.77;68.59;101543.58;110737;1259;22720;-80
2023/09/04 04:13:47;;;;;;;11.90;5.60;;;;;;;14.77;68.70;101551.98;110884;1263;22037;-79
2023/09/04 04:16:34;;;;;;;7.90;5.90;;;;;;;14.81;68.76;101566.04;110005;1268;22046;-80
2023/09/04 04:19:20;;;;;;;8.10;5.70;;;;;;;14.82;68.69;101577.39;109895;1271;21971;-80
2023/09/04 04:22:03;;;;;;;9.90;5.90;;;;;;;14.85;68.79;101582.92;109250;1277;21981;-80
2023/09/04 04:24:53;;;;;;;8.60;5.10;;;;;;;14.88;68.75;101587.37;109357;1274;22502;-81
2023/09/04 04:27:58;;;;;;;12.20;5.30;;;;;;;14.91;68.98;101590.92;109617;1274;22454;-80
2023/09/04 04:30:45;;;;;;;8.70;4.90;;;;;;;14.94;69.04;101594.85;109253;1275;21982;-79
2023/09/04 04:33:35;;;;;;;7.90;5.20;;;;;;;14.98;69.03;101595.57;109228;1278;22594;-79
2023/09/04 04:37:09;;;;;;;8.90;5.90;;;;;;;14.98;69.16;101582.44;109497;1271;22009;-78
2023/09/04 04:40:49;;;;;;;11.00;6.10;;;;;;;15.07;69.26;101585.10;110001;1267;23718;-79
2023/09/04 04:44:01;;;;;;;10.40;6.60;;;;;;;15.10;69.07;101576.20;109956;1267;21966;-78
2023/09/04 04:47:06;;;;;;;14.80;7.20;;;;;;;15.16;69.13;101578.61;110054;1267;22973;-79
2023/09/04 04:50:29;;;;;;;13.10;6.50;;;;;;;15.28;69.45;101581.84;110133;1265;23615;-79
2023/09/04 04:53:37;;;;;;;11.10;6.70;;;;;;;15.43;69.46;101591.81;110045;1265;21970;-80
2023/09/04 04:56:34;;;;;;;11.60;6.40;;;;;;;15.55;69.26;101594.49;110147;1265;21986;-79
2023/09/04 04:59:27;;;;;;;7.50;5.60;;;;;;;15.63;68.68;101586.48;109488;1272;23692;-78
2023/09/04 05:02:28;;;;;;;;;;;;;;;;;;;;;
2023/09/04 05:05:17;;;;;;;8.20;6.60;;;;;;;15.74;68.14;101599.91;109147;1277;23606;-79
2023/09/04 05:08:12;;;;;;;9.40;6.60;;;;;;;15.75;67.92;101602.17;108693;1279;23050;-78
2023/09/04 05:11:12;;;;;;;9.70;5.90;;;;;;;15.75;67.81;101597.59;108973;1279;22096;-79
2023/09/04 05:13:54;;;;;;;8.00;5.90;;;;;;;15.75;67.67;101602.34;108740;1279;21986;-78
2023/09/04 05:17:17;;;;;;;12.50;6.20;;;;;;;15.75;67.84;101600.60;109147;1273;21997;-78
2023/09/04 05:20:19;;;;;;;7.50;6.10;;;;;;;15.75;67.79;101597.44;109311;1273;23686;-78
2023/09/04 05:23:52;;;;;;;11.90;7.00;;;;;;;15.77;67.88;101594.39;109683;1267;21970;-79
2023/09/04 05:26:48;;;;;;;10.60;6.90;;;;;;;15.78;67.88;101592.23;109667;1266;23701;-80
2023/09/04 05:30:06;;;;;;;12.40;6.30;;;;;;;15.80;67.97;101598.27;109994;1266;21978;-79
2023/09/04 05:33:02;;;;;;;10.00;6.10;;;;;;;15.83;67.97;101597.30;110060;1266;22012;-79
2023/09/04 05:36:15;;;;;;;10.30;6.00;;;;;;;15.86;68.21;101593.48;109694;1266;21976;-77
2023/09/04 05:40:04;;;;;;;9.40;6.40;;;;;;;15.92;68.44;101594.63;109910;1267;22987;-79
2023/09/04 05:43:06;;;;;;;12.20;7.10;;;;;;;16.01;68.36;101591.86;110186;1267;23599;-79
2023/09/04 05:46:32;;;;;;;10.60;6.60;;;;;;;16.04;68.33;101579.79;110363;1263;22686;-79
2023/09/04 05:50:03;;;;;;;8.60;6.40;;;;;;;16.16;68.37;101590.36;110204;1269;23729;-80
2023/09/04 05:53:22;;;;;;;8.90;5.90;;;;;;;16.25;68.30;101578.55;109866;1269;21986;-79
2023/09/04 05:56:23;;;;;;;17.10;7.30;;;;;;;16.37;68.25;101579.60;109879;1263;21983;-78
2023/09/04 06:03:02;;;;;;;12.20;5.10;;;;;;;16.48;67.53;101590.56;109349;1272;22003;-78
2023/09/04 06:06:03;;;;;;;8.90;5.60;;;;;;;16.51;67.76;101603.46;109567;1273;22750;-79
2023/09/04 06:09:18;;;;;;;12.20;6.50;;;;;;;16.63;68.10;101609.25;109421;1273;23702;-78
2023/09/04 06:12:26;;;;;;;;;;;;;;;;;;;;;
2023/09/04 06:15:46;;;;;;;15.40;7.40;;;;;;;17.25;69.06;101605.98;109420;1267;21994;-77
2023/09/04 06:18:49;;;;;;;11.00;7.30;;;;;;;17.74;68.93;101612.19;109778;1266;22744;-78
2023/09/04 06:21:39;;;;;;;16.90;9.70;;;;;;;18.16;67.67;101615.66;110208;1262;22095;-79
2023/09/04 06:24:27;;;;;;;8.60;6.00;;;;;;;18.51;66.58;101608.40;110358;1262;21970;-78
2023/09/04 06:27:49;;;;;;;17.10;6.70;;;;;;;18.89;65.70;101606.46;111020;1244;23110;-78
2023/09/04 06:30:53;;;;;;;12.50;5.50;;;;;;;19.22;64.11;101596.08;110673;1262;21982;-78
2023/09/04 06:34:09;;;;;;;12.50;4.90;;;;;;;19.43;63.48;101603.92;110539;1260;24450;-79
2023/09/04 06:37:11;;;;;;;7.80;4.90;;;;;;;19.78;63.34;101608.74;110556;1262;22980;-77
2023/09/04 06:40:12;;;;;;;6.10;4.60;;;;;;;20.00;61.93;101611.55;109803;1268;22262;-79
2023/09/04 06:43:17;;;;;;;12.50;4.50;;;;;;;20.11;61.05;101610.71;109873;1268;23695;-80
2023/09/04 06:46:14;;;;;;;6.90;4.30;;;;;;;20.30;60.88;101608.24;109573;1268;21966;-79
2023/09/04 06:49:00;;;;;;;7.50;4.50;;;;;;;20.40;60.05;101606.56;109990;1266;22088;-80
2023/09/04 06:51:58;;;;;;;9.20;4.20;;;;;;;20.45;59.50;101612.80;109290;1275;22998;-81
2023/09/04 06:54:43;;;;;;;11.90;4.90;;;;;;;20.51;59.14;101618.84;108875;1279;23850;-77
2023/09/04 06:57:15;;;;;;;10.40;3.80;;;;;;;20.57;59.06;101618.15;108685;1279;22629;-77
2023/09/04 06:59:45;;;;;;;9.80;4.70;;;;;;;20.58;58.80;101621.94;108911;1279;21992;-77
2023/09/04 07:02:27;;;;;;;10.10;4.80;;;;;;;20.65;58.93;101623.11;108877;1279;23051;-77
2023/09/04 07:04:58;;;;;;;6.80;4.00;;;;;;;20.67;58.21;101621.42;108677;1279;22082;-77
2023/09/04 07:07:38;;;;;;;6.80;3.50;;;;;;;20.66;58.13;101623.59;108987;1273;22236;-77
2023/09/04 07:10:08;;;;;;;6.00;3.40;;;;;;;20.71;58.35;101631.63;109606;1269;22043;-77
2023/09/04 07:13:07;;;;;;;18.30;5.80;;;;;;;20.73;57.94;101635.39;110146;1262;21984;-76
2023/09/04 07:15:47;;;;;;;10.70;4.50;;;;;;;20.74;57.97;101639.04;109957;1268;21973;-76
2023/09/04 07:18:24;;;;;;;5.90;3.60;;;;;;;20.75;57.44;101645.34;110215;1262;23784;-77
2023/09/04 07:21:04;;;;;;;7.00;3.60;;;;;;;20.76;57.46;101647.96;110382;1262;21994;-78
2023/09/04 07:23:34;;;;;;;6.70;3.60;;;;;;;20.75;57.21;101650.86;110361;1262;21971;-77
2023/09/04 07:26:11;;;;;;;10.40;3.80;;;;;;;20.69;57.07;101654.91;110644;1262;21946;-77
2023/09/04 07:28:48;;;;;;;11.30;4.30;;;;;;;20.61;57.17;101660.30;110548;1262;23704;-78
2023/09/04 07:31:28;;;;;;;12.90;4.30;;;;;;;20.59;57.42;101666.46;110492;1262;21971;-78
2023/09/04 07:34:10;;;;;;;10.20;4.10;;;;;;;20.54;57.32;101667.61;110449;1263;23873;-77
2023/09/04 07:37:25;;;;;;;7.20;4.00;;;;;;;20.49;57.39;101662.60;109917;1267;23643;-80
2023/09/04 07:40:08;;;;;;;13.70;3.70;;;;;;;20.48;57.82;101672.52;110313;1265;23030;-79
2023/09/04 07:42:58;;;;;;;9.80;3.70;;;;;;;20.50;57.57;101684.28;109585;1269;22015;-78
2023/09/04 07:45:55;;;;;;;7.20;4.10;;;;;;;20.49;57.61;101682.08;109857;1269;23724;-79
2023/09/04 07:48:54;;;;;;;8.20;3.60;;;;;;;20.51;57.70;101681.44;109095;1276;22354;-78
2023/09/04 07:51:53;;;;;;;8.70;4.50;;;;;;;20.54;57.49;101678.77;109288;1269;23801;-79
2023/09/04 07:54:58;;;;;;;;;;;;;;;;;;;;;
2023/09/04 07:57:43;;;;;;;6.60;3.80;;;;;;;20.59;57.43;101673.36;110475;1267;21988;-78
2023/09/04 08:00:44;;;;;;;;;;;;;;;;;;;;;
2023/09/04 08:03:47;;;;;;;9.20;4.10;;;;;;;20.68;57.21;101674.81;110580;1263;22324;-79
2023/09/04 08:06:59;;;;;;;6.50;3.40;;;;;;;20.75;56.92;101674.73;111049;1255;21998;-81
2023/09/04 08:09:44;;;;;;;7.50;4.80;;;;;;;20.80;56.74;101674.27;111041;1255;23524;-78
2023/09/04 08:12:50;;;;;;;9.20;5.40;;;;;;;20.84;56.57;101670.13;111100;1255;21965;-76
2023/09/04 08:24:08;;;;;;;11.40;4.00;;;;;;;20.62;56.01;101666.65;109024;1276;22350;-80
2023/09/04 08:32:03;;;;;;;6.40;3.70;;;;;;;20.60;56.17;101663.06;108741;1284;22011;-79
2023/09/04 08:35:11;;;;;;;;;;;;;;;;;;;;;
2023/09/04 08:38:28;;;;;;;9.70;4.40;;;;;;;20.77;56.70;101676.70;108313;1289;22015;-79
2023/09/04 08:42:09;;;;;;;;;;;;;;;;;;;;;
2023/09/04 08:45:46;;;;;;;;;;;;;;;;;;;;;
2023/09/04 08:49:25;;;;;;;;;;;;;;;;;;;;;
2023/09/04 08:52:16;;;;;;;9.10;3.50;;;;;;;22.04;55.43;101677.18;107991;1294;23653;-79
2023/09/04 08:55:34;;;;;;;7.70;2.70;;;;;;;22.38;54.71;101676.52;107900;1294;22003;-79
2023/09/04 08:58:45;;;;;;;8.30;3.30;;;;;;;22.92;54.56;101673.23;107240;1299;23634;-79
2023/09/04 09:02:05;;;;;;;7.40;3.50;;;;;;;23.52;53.67;101669.22;107619;1293;23031;-79
2023/09/04 09:04:36;;;;;;;6.10;2.80;;;;;;;24.15;51.52;101667.50;107298;1298;22006;-78
2023/09/04 09:07:52;;;;;;;;;;;;;;;;;;;;;
2023/09/04 09:11:00;;;;;;;8.20;3.00;;;;;;;24.27;48.11;101667.40;106932;1300;22041;-79
2023/09/04 09:14:33;;;;;;;;;;;;;;;;;;;;;
2023/09/04 09:19:12;;;;;;;5.40;2.70;;;;;;;23.83;48.39;101667.56;106556;1307;23062;-79
2023/09/04 09:22:25;;;;;;;8.40;3.10;;;;;;;23.79;49.43;101670.00;106616;1302;22012;-78
2023/09/04 09:26:22;;;;;;;;;;;;;;;;;;;;;
2023/09/04 09:29:46;;;;;;;5.10;2.90;;;;;;;24.64;48.30;101674.41;107552;1298;22333;-79
2023/09/04 09:37:56;;;;;;;7.30;2.70;;;;;;;24.91;46.43;101668.73;106840;1304;22051;-81
2023/09/04 09:52:55;;;;;;;;;;;;;;;;;;;;;
2023/09/04 09:58:08;;;;;;;;;;;;;;;;;;;;;
2023/09/04 10:03:04;;;;;;;;;;;;;;;;;;;;;
2023/09/04 10:07:17;;;;;;;7.90;2.60;;;;;;;26.46;42.89;101659.83;112248;1246;21953;-81
2023/09/04 10:21:33;;;;;;;;;;;;;;;;;;;;;
2023/09/04 10:31:00;;;;;;;;;;;;;;;;;;;;;
2023/09/04 10:35:05;;;;;;;;;;;;;;;;;;;;;
2023/09/04 10:53:39;;;;;;;4.40;2.40;;;;;;;27.74;35.31;101654.68;108202;1289;548134;-77
2023/09/04 11:13:58;;;;;;;4.50;2.40;;;;;;;25.92;38.64;101646.83;107514;1298;22020;-80
2023/09/04 11:28:22;;;;;;;6.40;2.90;;;;;;;26.12;37.83;101636.80;108462;1279;548110;-79
2023/09/04 11:31:34;;;;;;;;;;;;;;;;;;;;;
2023/09/04 11:35:13;;;;;;;;;;;;;;;;;;;;;
2023/09/04 11:38:38;;;;;;;4.30;2.60;;;;;;;24.84;40.56;101636.50;109381;1268;23367;-80
2023/09/04 11:41:46;;;;;;;4.20;3.10;;;;;;;24.55;40.60;101627.70;109343;1274;21954;-78
2023/09/04 11:44:49;;;;;;;28.10;4.90;;;;;;;24.36;41.33;101624.73;109227;1276;21967;-80
2023/09/04 11:47:56;;;;;;;;;;;;;;;;;;;;;
2023/09/04 11:51:53;;;;;;;6.50;2.90;;;;;;;24.13;41.51;101615.95;109590;1273;23718;-79
2023/09/04 11:56:17;;;;;;;;;;;;;;;;;;;;;
2023/09/04 11:59:30;;;;;;;5.70;2.90;;;;;;;23.90;42.00;101610.55;110875;1263;21962;-80
2023/09/04 12:02:52;;;;;;;;;;;;;;;;;;;;;
2023/09/04 12:06:02;;;;;;;6.80;2.70;;;;;;;23.55;42.32;101613.98;109951;1268;21992;-79
2023/09/04 12:09:30;;;;;;;6.40;2.70;;;;;;;23.44;42.80;101608.91;110503;1264;22737;-80
2023/09/04 12:13:02;;;;;;;;;;;;;;;;;;;;;
2023/09/04 12:16:43;;;;;;;;;;;;;;;;;;;;;
2023/09/04 12:20:59;;;;;;;3.20;2.10;;;;;;;23.09;43.71;101604.64;110524;1260;23707;-81
2023/09/04 12:29:00;;;;;;;;;;;;;;;;;;;;;
2023/09/04 12:31:59;;;;;;;4.00;2.20;;;;;;;23.28;43.01;101598.84;109017;1276;23523;-80
2023/09/04 12:35:18;;;;;;;4.90;2.60;;;;;;;23.28;43.23;101586.27;109125;1276;22021;-80
2023/09/04 12:42:26;;;;;;;5.80;3.00;;;;;;;23.75;42.95;101592.08;108311;1289;23787;-79
2023/09/04 13:05:35;;;;;;;3.10;1.90;;;;;;;25.08;38.82;101591.61;112065;1254;548192;-80
2023/09/04 13:09:54;;;;;;;;;;;;;;;;;;;;;
2023/09/04 13:29:03;;;;;;;;;;;;;;;;;;;;;
2023/09/04 13:32:36;;;;;;;5.00;2.10;;;;;;;25.04;37.68;101555.75;106902;1261;23036;-81
2023/09/04 13:36:47;;;;;;;;;;;;;;;;;;;;;
2023/09/04 13:40:47;;;;;;;;;;;;;;;;;;;;;
2023/09/04 13:45:37;;;;;;;9.70;3.00;;;;;;;24.23;39.78;101548.52;110695;1262;22005;-80
2023/09/04 13:54:51;;;;;;;;;;;;;;;;;;;;;
2023/09/04 13:58:52;;;;;;;;;;;;;;;;;;;;;
2023/09/04 14:03:01;;;;;;;;;;;;;;;;;;;;;
2023/09/04 14:06:42;;;;;;;5.70;2.80;;;;;;;24.39;40.48;101554.21;105446;1272;5282143;-80
2023/09/04 14:10:50;;;;;;;4.80;2.20;;;;;;;24.31;40.32;101547.17;109170;1277;21998;-79
2023/09/04 14:14:57;;;;;;;4.40;2.40;;;;;;;24.35;40.11;101551.98;109249;1278;23001;-80
2023/09/04 14:20:09;;;;;;;;;;;;;;;;;;;;;
2023/09/04 14:35:31;;;;;;;3.80;2.40;;;;;;;24.28;40.77;101543.64;106675;1305;22032;-80
2023/09/04 14:40:11;;;;;;;4.50;2.50;;;;;;;24.54;40.01;101543.27;107662;1299;548039;-80
2023/09/04 14:44:42;;;;;;;;;;;;;;;;;;;;;
2023/09/04 14:52:30;;;;;;;6.80;3.00;;;;;;;24.15;40.41;101539.14;102674;1302;6355311;-80
2023/09/04 14:56:09;;;;;;;3.60;1.80;;;;;;;24.07;40.12;101534.80;106005;1317;21997;-80
2023/09/04 15:16:40;;;;;;;6.60;2.60;;;;;;;24.97;37.28;101529.91;105972;1262;21981;-85
2023/09/04 15:20:00;;;;;;;;;;;;;;;;;;;;;
2023/09/04 15:41:12;;;;;;;;;;;;;;;;;;;;;
2023/09/04 15:46:04;;;;;;;;;;;;;;;;;;;;;
2023/09/04 15:51:10;;;;;;;;;;;;;;;;;;;;;
2023/09/04 16:15:36;;;;;;;5.00;2.90;;;;;;;23.02;42.21;101529.51;107344;1302;22018;-79
2023/09/04 16:20:10;;;;;;;4.40;2.50;;;;;;;22.80;42.80;101527.84;103443;1301;23072;-79
2023/09/04 16:39:09;;;;;;;;;;;;;;;;;;;;;
2023/09/04 16:43:42;;;;;;;;;;;;;;;;;;;;;
2023/09/04 17:11:52;;;;;;;9.10;2.90;;;;;;;22.23;45.20;101549.52;104454;1243;21960;-82
2023/09/04 17:20:58;;;;;;;6.80;3.50;;;;;;;21.67;47.22;101561.38;110127;1270;23487;-83
2023/09/04 17:24:11;;;;;;;6.10;2.70;;;;;;;21.59;47.71;101555.73;109149;1275;22302;-83
2023/09/04 17:26:44;;;;;;;22.50;18.80;;;;;;;21.49;47.67;101547.16;109154;1275;22003;-82
2023/09/04 17:29:19;;;;;;;7.20;4.80;;;;;;;21.48;47.56;101546.33;109253;1275;22763;-84
2023/09/04 17:56:31;;;;;;;11.30;6.10;;;;;;;21.72;47.61;101543.90;111821;1257;21972;-84
2023/09/04 18:01:41;;;;;;;;;;;;;;;;;;;;;
2023/09/04 18:05:38;;;;;;;7.60;5.80;;;;;;;20.98;49.64;101532.28;110618;1265;22005;-80
2023/09/04 18:13:16;;;;;;;11.20;7.50;;;;;;;20.99;50.25;101535.77;110455;1265;22005;-78
2023/09/04 18:16:48;;;;;;;10.70;6.90;;;;;;;21.00;50.85;101539.11;110219;1265;22364;-79
2023/09/04 18:19:39;;;;;;;11.50;6.00;;;;;;;20.92;51.18;101548.06;109419;1270;22005;-78
2023/09/04 18:22:21;;;;;;;12.60;5.80;;;;;;;20.88;51.46;101553.30;109380;1269;21977;-78
2023/09/04 18:25:42;;;;;;;9.70;6.00;;;;;;;20.84;51.88;101555.13;109374;1270;21994;-79
2023/09/04 18:29:00;;;;;;;10.70;7.00;;;;;;;20.75;52.22;101554.11;109955;1267;22260;-78
2023/09/04 18:32:06;;;;;;;10.60;6.10;;;;;;;20.72;52.20;101555.89;109914;1267;21977;-77
2023/09/04 18:34:38;;;;;;;10.00;6.70;;;;;;;20.71;52.24;101559.83;109936;1267;23041;-78
2023/09/04 18:37:42;;;;;;;12.70;7.40;;;;;;;20.67;52.25;101561.10;110333;1260;22043;-79
2023/09/04 18:40:44;;;;;;;;;;;;;;;;;;;;;
2023/09/04 18:43:43;;;;;;;11.10;6.50;;;;;;;20.62;52.15;101567.98;112303;1243;23571;-79
2023/09/04 18:46:42;;;;;;;16.60;10.30;;;;;;;20.60;52.11;101566.46;112536;1243;24908;-77
2023/09/04 18:49:23;;;;;;;16.40;11.10;;;;;;;20.58;52.12;101571.70;112413;1234;23015;-76
2023/09/04 18:52:07;;;;;;;11.50;8.10;;;;;;;20.56;52.18;101572.71;112375;1240;23355;-77
2023/09/04 18:55:08;;;;;;;9.40;6.90;;;;;;;20.53;52.34;101572.91;112723;1240;23734;-79
2023/09/04 18:58:27;;;;;;;;;;;;;;;;;;;;;
2023/09/04 19:01:46;;;;;;;12.00;8.50;;;;;;;20.45;52.87;101576.39;111629;1250;22211;-76
2023/09/04 19:04:41;;;;;;;;;;;;;;;;;;;;;
2023/09/04 19:07:34;;;;;;;10.00;7.30;;;;;;;20.45;52.99;101582.41;111263;1254;22277;-77
2023/09/04 19:10:53;;;;;;;18.60;9.00;;;;;;;20.44;53.47;101584.39;111592;1249;23774;-75
2023/09/04 19:13:40;;;;;;;16.30;8.40;;;;;;;20.47;53.57;101588.10;111598;1249;22031;-75
2023/09/04 19:16:35;;;;;;;14.10;9.60;;;;;;;20.49;53.55;101586.36;111650;1241;21956;-77
2023/09/04 19:19:40;;;;;;;46.60;41.80;;;;;;;20.47;53.60;101585.26;111304;1251;22836;-76
2023/09/04 19:22:29;;;;;;;27.00;18.10;;;;;;;20.43;53.53;101582.70;111272;1253;23110;-76
2023/09/04 19:25:14;;;;;;;14.70;10.70;;;;;;;20.41;53.47;101586.32;111230;1254;21973;-76
2023/09/04 19:27:54;;;;;;;30.50;27.40;;;;;;;20.41;53.63;101587.95;110764;1258;23026;-76
2023/09/04 19:30:59;;;;;;;30.20;25.00;;;;;;;20.42;53.67;101588.95;110956;1258;22710;-77
2023/09/04 19:33:43;;;;;;;16.10;10.20;;;;;;;20.40;53.84;101590.14;110968;1258;21964;-76
2023/09/04 19:36:46;;;;;;;13.10;8.70;;;;;;;20.40;53.84;101589.60;111188;1250;22098;-76
2023/09/04 19:39:34;;;;;;;14.90;10.90;;;;;;;20.40;53.85;101583.25;111036;1257;21963;-76
2023/09/04 19:42:43;;;;;;;13.60;10.80;;;;;;;20.41;53.94;101590.94;111058;1253;23587;-76
2023/09/04 19:45:34;;;;;;;15.50;10.60;;;;;;;20.42;54.02;101594.61;111380;1247;23025;-76
2023/09/04 19:48:16;;;;;;;15.50;9.90;;;;;;;20.43;54.01;101594.86;111703;1247;21994;-78
2023/09/04 19:51:02;;;;;;;19.40;12.10;;;;;;;20.42;54.11;101597.78;111888;1247;21963;-77
2023/09/04 19:54:06;;;;;;;22.40;17.50;;;;;;;20.42;54.11;101592.46;111776;1241;23705;-77
2023/09/04 19:57:16;;;;;;;18.50;10.50;;;;;;;20.41;54.40;101594.30;112897;1234;21974;-77
2023/09/04 20:00:27;;;;;;;14.50;10.30;;;;;;;20.38;54.48;101596.63;113303;1234;22560;-77
2023/09/04 20:03:36;;;;;;;11.60;9.40;;;;;;;20.33;54.58;101592.45;112550;1241;21946;-77
2023/09/04 20:06:43;;;;;;;14.70;9.70;;;;;;;20.29;54.66;101593.23;112679;1241;22037;-76
2023/09/04 20:09:30;;;;;;;13.90;10.00;;;;;;;20.25;54.75;101591.36;112349;1241;21953;-76
2023/09/04 20:12:10;;;;;;;11.40;9.10;;;;;;;20.25;54.91;101584.28;112613;1241;24400;-76
2023/09/04 20:15:09;;;;;;;15.40;9.60;;;;;;;20.22;55.11;101575.10;112709;1240;23022;-78
2023/09/04 20:18:18;;;;;;;;;;;;;;;;;;;;;
2023/09/04 20:20:57;;;;;;;17.60;10.60;;;;;;;20.24;55.25;101579.02;112712;1234;22709;-76